Time;durP1;ratioP1;P1;durP2;ratioP2;P2;SDS_P1;SDS_P2;PMS_P1;PMS_P2;Temp;Humidity;BMP_temperature;BMP_pressure;BME280_temperature;BME280_humidity;BME280_pressure;Samples;Min_cycle;Max_cycle;Signal;HPM_P1;HPM_P2
2022/01/11 00:00:31;;;;;;;64.03;49.27;;;22.20;83.90;;;;;;1884009;73;21156;-81
2022/01/11 00:03:03;;;;;;;65.52;47.48;;;22.20;83.60;;;;;;1890542;74;21137;-82
2022/01/11 00:05:45;;;;;;;66.37;48.40;;;22.30;83.40;;;;;;1890362;74;21095;-82
2022/01/11 00:08:10;;;;;;;74.07;47.90;;;22.30;83.30;;;;;;1889526;74;21198;-82
2022/01/11 00:13:12;;;;;;;71.17;45.55;;;22.40;83.10;;;;;;1806851;77;21208;-83
2022/01/11 00:15:43;;;;;;;75.28;51.45;;;22.40;82.90;;;;;;1866279;74;21139;-82
2022/01/11 00:18:15;;;;;;;74.62;51.05;;;22.40;83.00;;;;;;1843613;76;21198;-83
2022/01/11 00:20:46;;;;;;;78.35;54.50;;;22.50;83.00;;;;;;1868082;74;21158;-83
2022/01/11 00:25:50;;;;;;;79.17;56.28;;;22.50;82.70;;;;;;1825505;77;21147;-83
2022/01/11 00:28:22;;;;;;;77.12;56.70;;;22.50;82.10;;;;;;1827186;76;21285;-83
2022/01/11 00:30:53;;;;;;;74.25;53.90;;;22.60;82.10;;;;;;1818125;76;21184;-83
2022/01/11 00:33:36;;;;;;;67.35;50.28;;;22.60;81.60;;;;;;1860619;75;21629;-82
2022/01/11 00:36:00;;;;;;;73.83;50.83;;;22.60;80.80;;;;;;1831085;76;21686;-83
2022/01/11 00:38:33;;;;;;;73.70;52.40;;;22.70;80.20;;;;;;1837069;76;21216;-83
2022/01/11 00:41:06;;;;;;;80.42;56.75;;;22.70;80.10;;;;;;1842165;75;21781;-82
2022/01/11 00:43:38;;;;;;;79.77;56.00;;;22.70;80.00;;;;;;1846279;75;21138;-82
2022/01/11 00:46:11;;;;;;;88.07;61.92;;;22.70;80.00;;;;;;1838923;75;21071;-82
2022/01/11 00:48:42;;;;;;;82.67;59.13;;;22.80;80.10;;;;;;1844838;74;21123;-82
2022/01/11 00:51:13;;;;;;;73.15;53.45;;;22.80;79.80;;;;;;1858062;75;21618;-81
2022/01/11 00:53:43;;;;;;;72.03;52.17;;;22.80;79.00;;;;;;1851597;75;21617;-81
2022/01/11 00:56:15;;;;;;;74.22;52.03;;;22.90;78.80;;;;;;1827183;76;21203;-82
2022/01/11 00:58:47;;;;;;;75.52;52.40;;;22.90;78.80;;;;;;1809101;77;21150;-82
2022/01/11 01:01:18;;;;;;;80.25;52.95;;;23.00;78.80;;;;;;1806343;76;21114;-82
2022/01/11 01:03:49;;;;;;;66.12;50.12;;;23.00;78.60;;;;;;1858203;74;21237;-82
2022/01/11 01:06:20;;;;;;;72.12;49.23;;;23.10;78.30;;;;;;1844303;75;21083;-82
2022/01/11 01:08:50;;;;;;;77.65;51.88;;;23.10;78.00;;;;;;1857050;76;21604;-82
2022/01/11 01:11:21;;;;;;;86.37;57.83;;;23.10;78.00;;;;;;1913561;74;21286;-82
2022/01/11 01:13:52;;;;;;;82.50;56.08;;;23.20;78.00;;;;;;1875176;74;21177;-82
2022/01/11 01:16:23;;;;;;;73.85;53.28;;;23.30;77.90;;;;;;1879373;74;21763;-82
2022/01/11 01:18:54;;;;;;;73.75;50.10;;;23.40;77.60;;;;;;1810743;77;21577;-81
2022/01/11 01:21:25;;;;;;;69.92;46.75;;;23.40;77.10;;;;;;1828446;76;21223;-82
2022/01/11 01:23:56;;;;;;;73.85;50.00;;;23.50;76.80;;;;;;1799733;77;21717;-81
2022/01/11 01:26:27;;;;;;;65.25;46.42;;;23.50;76.70;;;;;;1811069;76;21164;-83
2022/01/11 01:28:59;;;;;;;64.17;43.87;;;23.60;76.20;;;;;;1847594;75;21523;-83
2022/01/11 01:31:30;;;;;;;57.25;42.38;;;23.70;75.50;;;;;;1826781;76;21158;-84
2022/01/11 01:34:01;;;;;;;57.13;41.95;;;23.80;75.00;;;;;;1846535;75;21088;-83
2022/01/11 01:36:33;;;;;;;57.53;38.65;;;23.90;74.70;;;;;;1813383;77;21183;-83
2022/01/11 01:39:04;;;;;;;58.68;37.60;;;23.90;74.20;;;;;;1825463;75;21216;-82
2022/01/11 01:41:36;;;;;;;49.60;37.03;;;24.00;73.20;;;;;;1865583;74;21134;-82
2022/01/11 01:44:06;;;;;;;54.42;36.70;;;24.10;73.10;;;;;;1888689;74;21258;-83
2022/01/11 01:46:37;;;;;;;51.13;35.78;;;24.20;72.60;;;;;;1886152;74;21630;-83
2022/01/11 01:49:15;;;;;;;54.13;34.40;;;24.20;72.20;;;;;;1881408;74;21161;-83
2022/01/11 01:51:41;;;;;;;46.80;34.13;;;24.30;72.00;;;;;;1889684;74;21208;-83
2022/01/11 01:54:12;;;;;;;56.73;37.48;;;24.40;71.80;;;;;;1859017;75;21757;-83
2022/01/11 01:56:44;;;;;;;53.70;36.38;;;24.40;71.60;;;;;;1853118;76;21507;-83
2022/01/11 01:59:16;;;;;;;51.25;35.83;;;24.50;71.30;;;;;;1862707;74;21228;-82
2022/01/11 02:01:48;;;;;;;56.05;39.10;;;24.60;71.50;;;;;;1815325;76;21283;-83
2022/01/11 02:04:20;;;;;;;60.28;41.15;;;24.70;72.00;;;;;;1885206;74;21666;-82
2022/01/11 02:06:51;;;;;;;54.03;38.63;;;24.80;72.30;;;;;;1871101;74;21131;-82
2022/01/11 02:09:22;;;;;;;49.30;35.20;;;24.80;72.10;;;;;;1890225;74;21059;-83
2022/01/11 02:11:53;;;;;;;39.95;29.32;;;24.90;72.00;;;;;;1883497;74;21091;-82
2022/01/11 02:14:23;;;;;;;44.23;28.40;;;25.00;71.50;;;;;;1885224;74;21136;-83
2022/01/11 02:16:57;;;;;;;39.53;27.80;;;25.00;70.90;;;;;;1890425;74;21141;-83
2022/01/11 02:19:28;;;;;;;41.98;26.85;;;25.00;70.90;;;;;;1884943;74;21767;-82
2022/01/11 02:21:59;;;;;;;38.90;25.55;;;25.10;70.90;;;;;;1886521;74;21208;-82
2022/01/11 02:24:32;;;;;;;37.98;25.75;;;25.10;70.70;;;;;;1885702;74;21190;-83
2022/01/11 02:27:01;;;;;;;36.05;23.87;;;25.20;70.80;;;;;;1884532;74;21111;-85
2022/01/11 02:29:33;;;;;;;34.43;22.70;;;25.30;70.60;;;;;;1891045;74;21911;-83
2022/01/11 02:32:04;;;;;;;31.97;21.80;;;25.30;70.10;;;;;;1878251;74;21151;-83
2022/01/11 02:34:35;;;;;;;28.30;18.90;;;25.40;69.60;;;;;;1859235;75;21700;-83
2022/01/11 02:37:06;;;;;;;32.42;19.20;;;25.50;68.80;;;;;;1889746;74;21183;-82
2022/01/11 02:39:37;;;;;;;27.73;18.85;;;25.60;67.90;;;;;;1880491;74;21122;-82
2022/01/11 02:42:08;;;;;;;31.05;17.77;;;25.70;68.00;;;;;;1797026;77;21139;-84
2022/01/11 02:44:39;;;;;;;31.25;17.65;;;25.80;67.30;;;;;;1826168;75;21638;-84
2022/01/11 02:47:10;;;;;;;25.00;16.23;;;25.90;66.90;;;;;;1843731;76;21303;-82
2022/01/11 02:49:41;;;;;;;26.30;15.05;;;26.00;66.40;;;;;;1863077;75;21224;-83
2022/01/11 02:52:11;;;;;;;20.23;13.98;;;26.00;66.40;;;;;;1827461;75;21155;-84
2022/01/11 02:54:42;;;;;;;20.12;14.70;;;26.10;66.50;;;;;;1825390;76;21140;-83
2022/01/11 02:57:13;;;;;;;19.65;12.10;;;26.10;66.40;;;;;;1821396;76;21183;-84
2022/01/11 02:59:44;;;;;;;19.62;13.13;;;26.20;66.00;;;;;;1821298;76;21598;-83
2022/01/11 03:02:16;;;;;;;19.50;12.70;;;26.20;66.40;;;;;;1837750;75;21094;-83
2022/01/11 03:04:47;;;;;;;22.95;12.05;;;26.30;66.00;;;;;;1832606;76;21087;-85
2022/01/11 03:07:20;;;;;;;19.27;11.65;;;26.30;66.30;;;;;;1867441;75;21202;-84
2022/01/11 03:12:24;;;;;;;17.27;10.48;;;26.40;66.10;;;;;;1851049;75;21683;-85
2022/01/11 03:14:55;;;;;;;20.10;10.88;;;26.50;66.10;;;;;;1839443;76;21142;-84
2022/01/11 03:17:26;;;;;;;15.70;9.88;;;26.60;65.80;;;;;;1867118;74;21191;-84
2022/01/11 03:19:58;;;;;;;19.02;10.75;;;26.60;65.80;;;;;;1838234;76;21599;-83
2022/01/11 03:22:29;;;;;;;15.10;10.58;;;26.70;65.10;;;;;;1849741;76;21712;-83
2022/01/11 03:25:02;;;;;;;16.42;10.72;;;26.80;65.30;;;;;;1897569;74;21562;-83
2022/01/11 03:27:38;;;;;;;18.95;10.98;;;26.80;65.10;;;;;;1886018;75;21110;-82
2022/01/11 03:30:06;;;;;;;17.27;11.95;;;26.90;65.20;;;;;;1906361;74;21208;-84
2022/01/11 03:32:37;;;;;;;18.60;11.48;;;26.90;65.30;;;;;;1883219;74;21192;-84
2022/01/11 03:35:09;;;;;;;17.73;12.58;;;27.10;66.40;;;;;;1905695;74;21071;-84
2022/01/11 03:37:42;;;;;;;21.17;12.75;;;27.10;65.20;;;;;;1822657;76;21162;-85
2022/01/11 03:40:15;;;;;;;20.35;13.30;;;27.20;65.20;;;;;;1830010;76;22148;-84
2022/01/11 03:42:47;;;;;;;19.70;13.20;;;27.20;64.90;;;;;;1885629;74;21127;-85
2022/01/11 03:45:21;;;;;;;19.90;14.40;;;27.20;64.90;;;;;;1894417;74;21219;-83
2022/01/11 03:47:53;;;;;;;21.55;14.90;;;27.30;65.20;;;;;;1897478;74;21211;-84
2022/01/11 03:50:24;;;;;;;18.05;14.45;;;27.40;64.70;;;;;;1853361;75;21156;-83
2022/01/11 03:53:10;;;;;;;22.32;14.00;;;27.40;64.80;;;;;;1822069;77;21304;-84
2022/01/11 03:55:44;;;;;;;22.22;14.75;;;27.50;64.50;;;;;;1787619;77;21131;-83
2022/01/11 03:58:01;;;;;;;21.73;14.10;;;27.60;64.70;;;;;;1804737;76;21166;-82
2022/01/11 04:00:32;;;;;;;27.60;14.35;;;27.70;63.80;;;;;;1849568;74;21167;-84
2022/01/11 04:03:04;;;;;;;20.77;13.70;;;27.80;64.20;;;;;;1850127;76;21172;-83
2022/01/11 04:05:35;;;;;;;24.70;14.58;;;27.90;63.60;;;;;;1841121;76;21205;-82
2022/01/11 04:08:06;;;;;;;27.93;14.98;;;27.90;63.30;;;;;;1848469;76;21220;-85
2022/01/11 04:10:37;;;;;;;22.37;14.83;;;28.00;62.90;;;;;;1841313;76;21271;-84
2022/01/11 04:13:08;;;;;;;21.25;13.68;;;28.20;62.90;;;;;;1837065;76;21201;-83
2022/01/11 04:15:39;;;;;;;21.25;13.70;;;28.30;62.60;;;;;;1842976;75;21146;-83
2022/01/11 04:18:10;;;;;;;19.05;12.98;;;28.40;62.70;;;;;;1824730;76;21740;-83
2022/01/11 04:20:40;;;;;;;21.60;14.30;;;28.40;61.80;;;;;;1853590;76;21173;-83
2022/01/11 04:23:13;;;;;;;23.95;15.50;;;;;;;;;;1846227;76;21217;-84
2022/01/11 04:25:44;;;;;;;24.02;14.47;;;28.50;61.50;;;;;;1843291;76;21735;-83
2022/01/11 04:28:15;;;;;;;17.82;12.70;;;28.60;61.70;;;;;;1847698;76;21099;-81
2022/01/11 04:30:47;;;;;;;21.17;13.45;;;28.70;60.80;;;;;;1849817;76;21612;-83
2022/01/11 04:33:18;;;;;;;23.83;14.68;;;28.80;61.00;;;;;;1833458;75;21330;-84
2022/01/11 04:35:49;;;;;;;21.60;14.33;;;28.90;60.40;;;;;;1852517;75;21192;-84
2022/01/11 04:38:22;;;;;;;25.37;13.25;;;29.00;60.40;;;;;;1791357;78;21233;-82
2022/01/11 04:40:53;;;;;;;18.95;13.45;;;29.10;58.70;;;;;;1868098;76;21155;-83
2022/01/11 04:43:24;;;;;;;19.27;14.15;;;29.20;58.80;;;;;;1861867;76;21224;-84
2022/01/11 04:45:55;;;;;;;22.15;14.35;;;29.30;59.40;;;;;;1861784;75;21142;-82
2022/01/11 04:48:28;;;;;;;20.88;14.33;;;29.30;58.70;;;;;;1857821;75;21137;-83
2022/01/11 04:50:58;;;;;;;24.75;15.43;;;29.40;58.30;;;;;;1833409;75;21620;-70
2022/01/11 04:53:29;;;;;;;25.48;15.85;;;29.50;58.70;;;;;;1831731;76;21188;-70
2022/01/11 04:56:00;;;;;;;21.17;14.28;;;29.50;59.20;;;;;;1826678;74;21700;-70
2022/01/11 04:58:31;;;;;;;18.45;12.75;;;29.50;58.40;;;;;;1839382;76;21224;-70
2022/01/11 05:01:01;;;;;;;18.27;11.68;;;29.50;56.80;;;;;;1829593;76;21229;-69
2022/01/11 05:03:33;;;;;;;19.05;12.10;;;29.60;57.10;;;;;;1849089;76;21139;-70
2022/01/11 05:06:04;;;;;;;20.97;13.80;;;29.70;56.00;;;;;;1836510;76;21195;-70
2022/01/11 05:08:36;;;;;;;23.30;12.80;;;29.80;57.10;;;;;;1825008;76;21197;-70
2022/01/11 05:11:07;;;;;;;20.70;13.93;;;29.90;56.40;;;;;;1839231;76;21094;-70
2022/01/11 05:13:38;;;;;;;22.77;15.50;;;29.90;57.60;;;;;;1854009;75;21256;-70
2022/01/11 05:16:10;;;;;;;22.10;13.10;;;30.00;57.00;;;;;;1822741;76;21119;-70
2022/01/11 05:18:40;;;;;;;19.98;13.62;;;30.00;55.90;;;;;;1838903;76;21177;-70
2022/01/11 05:21:11;;;;;;;19.82;14.60;;;30.10;55.80;;;;;;1848718;75;21162;-70
2022/01/11 05:23:42;;;;;;;23.32;15.25;;;30.10;56.10;;;;;;1844254;76;21099;-70
2022/01/11 05:26:13;;;;;;;17.90;12.65;;;30.10;55.60;;;;;;1903268;74;21231;-71
2022/01/11 05:28:43;;;;;;;15.00;10.63;;;30.20;55.10;;;;;;1815625;76;21154;-70
2022/01/11 05:31:14;;;;;;;18.15;12.18;;;30.20;53.20;;;;;;1843160;77;21571;-70
2022/01/11 05:33:45;;;;;;;16.12;12.07;;;30.30;54.60;;;;;;1859952;74;21727;-70
2022/01/11 05:36:16;;;;;;;15.50;10.65;;;30.40;54.40;;;;;;1894923;73;21202;-70
2022/01/11 05:38:49;;;;;;;18.90;11.53;;;30.60;53.80;;;;;;1873725;75;21226;-70
2022/01/11 05:41:19;;;;;;;14.87;10.90;;;30.60;54.30;;;;;;1882571;74;21639;-71
2022/01/11 05:43:50;;;;;;;15.45;9.30;;;30.70;54.70;;;;;;1819703;76;21156;-70
2022/01/11 05:46:21;;;;;;;15.10;9.80;;;30.70;52.00;;;;;;1900282;73;21237;-70
2022/01/11 05:48:52;;;;;;;14.95;10.25;;;30.70;53.00;;;;;;1897686;73;21188;-71
2022/01/11 05:51:24;;;;;;;15.00;10.30;;;30.80;52.90;;;;;;1913011;73;21213;-70
2022/01/11 05:53:56;;;;;;;13.98;9.85;;;30.80;53.10;;;;;;1867990;75;21147;-70
2022/01/11 05:56:28;;;;;;;11.70;8.25;;;30.80;53.00;;;;;;1835777;76;21135;-71
2022/01/11 05:58:59;;;;;;;14.53;8.50;;;30.90;51.70;;;;;;1829027;75;21170;-71
2022/01/11 06:01:29;;;;;;;9.30;6.67;;;30.90;51.60;;;;;;1896732;74;21060;-70
2022/01/11 06:04:00;;;;;;;13.68;6.78;;;30.90;49.80;;;;;;1865752;74;21174;-70
2022/01/11 06:06:31;;;;;;;14.07;8.78;;;31.00;50.30;;;;;;1846735;76;21650;-71
2022/01/11 06:09:03;;;;;;;20.72;10.38;;;31.10;52.60;;;;;;1873798;75;21115;-71
2022/01/11 06:11:34;;;;;;;13.00;8.63;;;31.10;52.40;;;;;;1882027;74;21147;-71
2022/01/11 06:14:04;;;;;;;12.37;8.15;;;31.10;51.50;;;;;;1894237;74;21733;-72
2022/01/11 06:16:36;;;;;;;13.55;8.88;;;31.10;53.30;;;;;;1900170;73;21095;-71
2022/01/11 06:19:07;;;;;;;13.90;9.25;;;31.00;51.70;;;;;;1921381;73;21397;-72
2022/01/11 06:21:38;;;;;;;16.23;8.45;;;31.00;52.00;;;;;;1918728;73;21173;-71
2022/01/11 06:24:09;;;;;;;11.43;7.80;;;31.00;51.40;;;;;;1847181;76;21212;-70
2022/01/11 06:26:39;;;;;;;16.90;8.65;;;31.00;51.40;;;;;;1859616;75;21206;-70
2022/01/11 06:29:11;;;;;;;16.20;8.23;;;31.10;51.60;;;;;;1880451;74;21153;-71
2022/01/11 06:31:42;;;;;;;14.23;8.50;;;31.10;51.90;;;;;;1880342;75;21188;-70
2022/01/11 06:34:13;;;;;;;13.50;7.83;;;31.10;52.90;;;;;;1840889;75;21243;-70
2022/01/11 06:36:43;;;;;;;9.68;7.37;;;31.10;51.60;;;;;;1829936;76;21189;-70
2022/01/11 06:39:14;;;;;;;15.45;7.33;;;31.20;52.10;;;;;;1836519;76;21150;-70
2022/01/11 06:41:45;;;;;;;12.53;7.90;;;31.20;52.70;;;;;;1844206;75;21821;-70
2022/01/11 06:44:16;;;;;;;9.33;6.90;;;31.30;51.20;;;;;;1835925;75;21204;-71
2022/01/11 06:46:47;;;;;;;11.95;7.45;;;31.30;52.10;;;;;;1860641;74;21489;-71
2022/01/11 06:49:18;;;;;;;15.90;8.13;;;31.30;51.10;;;;;;1866938;74;21899;-71
2022/01/11 06:51:49;;;;;;;14.35;7.78;;;31.40;51.60;;;;;;1873600;74;21833;-71
2022/01/11 06:54:20;;;;;;;15.30;8.13;;;31.40;51.20;;;;;;1875440;74;21244;-71
2022/01/11 06:56:51;;;;;;;12.33;8.00;;;31.50;51.50;;;;;;1876659;74;21558;-70
2022/01/11 06:59:22;;;;;;;16.35;7.50;;;31.50;51.10;;;;;;1863888;74;21688;-70
2022/01/11 07:01:53;;;;;;;13.45;8.08;;;31.50;50.40;;;;;;1860704;75;21103;-70
2022/01/11 07:04:24;;;;;;;15.35;7.85;;;31.50;50.30;;;;;;1876618;74;21214;-70
2022/01/11 07:06:55;;;;;;;16.25;8.25;;;31.50;50.60;;;;;;1871071;74;21165;-71
2022/01/11 07:09:27;;;;;;;14.13;7.87;;;31.50;50.40;;;;;;1877249;73;21878;-71
2022/01/11 07:11:57;;;;;;;14.98;7.92;;;31.60;51.20;;;;;;1861718;74;21224;-70
2022/01/11 07:14:29;;;;;;;12.98;7.35;;;31.60;51.30;;;;;;1880424;73;21087;-71
2022/01/11 07:17:00;;;;;;;11.43;7.95;;;31.60;50.90;;;;;;1873657;74;21790;-70
2022/01/11 07:19:31;;;;;;;10.85;7.90;;;31.60;51.10;;;;;;1848525;76;21134;-70
2022/01/11 07:22:02;;;;;;;13.25;8.85;;;31.60;50.60;;;;;;1892719;73;21279;-71
2022/01/11 07:24:33;;;;;;;12.78;8.43;;;31.60;49.80;;;;;;1905223;73;21219;-71
2022/01/11 07:27:04;;;;;;;12.43;7.67;;;31.60;49.80;;;;;;1891504;74;21238;-70
2022/01/11 07:29:35;;;;;;;11.28;7.83;;;31.60;49.70;;;;;;1849363;75;21332;-70
2022/01/11 07:32:06;;;;;;;11.25;7.55;;;31.50;50.00;;;;;;1877137;74;21058;-70
2022/01/11 07:34:37;;;;;;;12.75;7.70;;;31.40;50.20;;;;;;1891358;73;21644;-70
2022/01/11 07:37:08;;;;;;;13.75;7.92;;;31.40;50.60;;;;;;1870230;75;21142;-71
2022/01/11 07:39:39;;;;;;;12.65;7.92;;;31.40;50.30;;;;;;1903897;74;21174;-71
2022/01/11 07:42:10;;;;;;;12.78;7.85;;;31.40;50.40;;;;;;1891899;73;21142;-70
2022/01/11 07:44:40;;;;;;;14.68;8.10;;;31.40;50.40;;;;;;1904310;73;21145;-70
2022/01/11 07:47:11;;;;;;;10.93;7.65;;;31.40;49.60;;;;;;1895139;73;21146;-70
2022/01/11 07:49:42;;;;;;;11.90;8.73;;;31.40;51.10;;;;;;1877162;73;21671;-70
2022/01/11 07:52:14;;;;;;;16.50;9.00;;;31.50;50.10;;;;;;1885465;74;21269;-70
2022/01/11 07:54:45;;;;;;;13.38;9.98;;;31.50;50.20;;;;;;1868346;74;21213;-69
2022/01/11 07:57:16;;;;;;;17.90;9.65;;;31.50;50.40;;;;;;1872524;74;21213;-72
2022/01/11 07:59:47;;;;;;;16.55;7.78;;;31.40;51.00;;;;;;1864362;75;21221;-70
2022/01/11 08:02:23;;;;;;;14.33;8.45;;;31.50;50.90;;;;;;1834511;76;21174;-70
2022/01/11 08:04:54;;;;;;;13.08;8.48;;;31.50;50.60;;;;;;1864479;74;21162;-70
2022/01/11 08:07:25;;;;;;;13.05;8.80;;;31.40;51.10;;;;;;1854992;75;21249;-70
2022/01/11 08:09:56;;;;;;;12.28;8.30;;;31.40;50.50;;;;;;1847791;76;21084;-72
2022/01/11 08:12:27;;;;;;;12.07;9.05;;;31.40;51.10;;;;;;1878069;73;21216;-71
2022/01/11 08:14:57;;;;;;;12.37;8.08;;;31.40;49.80;;;;;;1892602;73;21141;-71
2022/01/11 08:17:28;;;;;;;14.23;9.05;;;31.40;50.40;;;;;;1898828;73;21603;-71
2022/01/11 08:19:59;;;;;;;28.27;10.65;;;31.40;50.00;;;;;;1904007;73;21771;-71
2022/01/11 08:22:30;;;;;;;14.13;8.45;;;31.30;49.10;;;;;;1928677;73;21722;-71
2022/01/11 08:25:01;;;;;;;10.72;8.55;;;31.20;49.50;;;;;;1876539;73;21140;-71
2022/01/11 08:27:33;;;;;;;12.65;8.48;;;31.10;49.50;;;;;;1892765;73;21177;-71
2022/01/11 08:30:06;;;;;;;13.85;8.03;;;31.10;50.10;;;;;;1907986;73;21087;-70
2022/01/11 08:32:37;;;;;;;14.93;8.10;;;31.00;49.90;;;;;;1895510;73;21200;-71
2022/01/11 08:35:09;;;;;;;23.73;10.88;;;30.90;49.50;;;;;;1887710;73;21177;-71
2022/01/11 08:37:40;;;;;;;20.08;9.40;;;30.80;49.30;;;;;;1851629;76;21715;-70
2022/01/11 08:40:12;;;;;;;14.07;9.20;;;30.90;49.70;;;;;;1847425;76;21690;-71
2022/01/11 08:42:42;;;;;;;14.75;8.90;;;30.90;50.10;;;;;;1844080;75;21157;-69
2022/01/11 08:45:13;;;;;;;17.50;9.33;;;30.90;51.30;;;;;;1847064;76;21158;-70
2022/01/11 08:47:44;;;;;;;14.43;8.95;;;30.90;51.30;;;;;;1863901;75;21174;-70
2022/01/11 08:50:15;;;;;;;17.70;10.20;;;31.00;51.30;;;;;;1819835;76;21130;-70
2022/01/11 08:52:46;;;;;;;11.73;8.75;;;30.90;51.60;;;;;;1837944;75;21090;-70
2022/01/11 08:55:17;;;;;;;22.42;10.60;;;30.90;51.70;;;;;;1808840;76;22733;-70
2022/01/11 08:57:48;;;;;;;13.78;9.13;;;30.90;51.70;;;;;;1887424;75;21189;-71
2022/01/11 09:00:19;;;;;;;14.23;9.80;;;30.90;52.00;;;;;;1875453;74;21275;-70
2022/01/11 09:02:52;;;;;;;15.93;10.43;;;30.90;51.80;;;;;;1857878;76;21172;-70
2022/01/11 09:05:24;;;;;;;15.83;9.18;;;30.90;51.60;;;;;;1898278;73;21202;-70
2022/01/11 09:07:55;;;;;;;16.15;9.48;;;30.90;51.90;;;;;;1890504;73;21183;-70
2022/01/11 09:10:26;;;;;;;14.05;9.00;;;30.90;52.00;;;;;;1867903;74;21260;-70
2022/01/11 09:12:57;;;;;;;16.23;9.50;;;30.90;52.20;;;;;;1898419;73;21117;-69
2022/01/11 09:15:28;;;;;;;14.55;8.60;;;30.90;52.50;;;;;;1864219;75;21621;-70
2022/01/11 09:18:00;;;;;;;17.85;10.05;;;30.80;52.70;;;;;;1891631;75;21202;-70
2022/01/11 09:20:31;;;;;;;13.68;11.12;;;30.70;52.90;;;;;;1851368;76;21169;-71
2022/01/11 09:23:01;;;;;;;19.30;9.93;;;30.70;52.80;;;;;;1823454;77;21174;-70
2022/01/11 09:25:33;;;;;;;14.60;9.23;;;30.60;53.00;;;;;;1870405;74;21184;-70
2022/01/11 09:28:05;;;;;;;17.90;9.48;;;30.60;53.00;;;;;;1845899;76;21510;-70
2022/01/11 09:30:36;;;;;;;16.02;9.70;;;30.60;53.30;;;;;;1821074;76;21178;-70
2022/01/11 09:33:07;;;;;;;16.20;9.95;;;30.60;53.10;;;;;;1877442;75;21102;-70
2022/01/11 09:35:37;;;;;;;17.02;9.40;;;30.50;52.90;;;;;;1835370;75;21783;-71
2022/01/11 09:38:08;;;;;;;16.97;10.30;;;30.60;53.10;;;;;;1897632;73;21229;-71
2022/01/11 09:40:39;;;;;;;15.72;9.65;;;30.50;53.40;;;;;;1906625;73;21135;-69
2022/01/11 09:43:12;;;;;;;15.65;9.70;;;30.60;54.50;;;;;;1915595;73;21211;-70
2022/01/11 09:45:45;;;;;;;14.40;9.55;;;30.50;53.70;;;;;;1890850;73;21188;-70
2022/01/11 09:48:17;;;;;;;13.62;9.25;;;30.50;53.70;;;;;;1894298;73;21666;-70
2022/01/11 09:50:48;;;;;;;16.55;9.10;;;30.50;53.50;;;;;;1895563;73;21075;-70
2022/01/11 09:53:19;;;;;;;16.57;9.30;;;30.50;53.60;;;;;;1846726;75;21214;-70
2022/01/11 09:55:50;;;;;;;12.00;9.25;;;30.50;53.70;;;;;;1844042;75;21335;-70
2022/01/11 09:58:21;;;;;;;11.78;8.75;;;30.50;53.60;;;;;;1873373;74;21106;-69
2022/01/11 10:00:53;;;;;;;15.90;9.50;;;30.40;53.70;;;;;;1846752;75;21194;-70
2022/01/11 10:03:24;;;;;;;15.70;10.08;;;30.40;53.80;;;;;;1850470;76;21248;-70
2022/01/11 10:05:56;;;;;;;14.98;9.68;;;30.30;53.80;;;;;;1887707;74;21193;-70
2022/01/11 10:08:30;;;;;;;15.88;10.63;;;30.30;53.90;;;;;;1877531;74;21156;-70
2022/01/11 10:11:01;;;;;;;17.45;9.85;;;30.30;54.30;;;;;;1860892;74;21581;-70
2022/01/11 10:13:35;;;;;;;15.65;10.08;;;30.30;54.10;;;;;;1879131;75;21645;-70
2022/01/11 10:16:08;;;;;;;14.47;10.15;;;30.20;54.10;;;;;;1878999;74;21178;-69
2022/01/11 10:18:39;;;;;;;14.55;9.95;;;30.20;54.30;;;;;;1839545;75;21117;-70
2022/01/11 10:21:13;;;;;;;13.93;9.58;;;30.10;54.40;;;;;;1826524;76;21206;-70
2022/01/11 10:23:43;;;;;;;13.78;10.00;;;30.10;54.60;;;;;;1885136;75;21256;-70
2022/01/11 10:26:14;;;;;;;14.65;9.25;;;30.00;54.80;;;;;;1888787;75;21182;-70
2022/01/11 10:28:45;;;;;;;16.57;9.60;;;30.00;55.00;;;;;;1867802;74;21205;-70
2022/01/11 10:31:18;;;;;;;18.75;10.45;;;29.90;55.30;;;;;;1886112;74;21227;-70
2022/01/11 10:33:52;;;;;;;16.80;9.93;;;29.90;55.30;;;;;;1862957;75;22043;-70
2022/01/11 10:36:27;;;;;;;14.78;8.80;;;29.90;55.30;;;;;;1849143;76;21244;-70
2022/01/11 10:38:58;;;;;;;15.78;8.80;;;29.90;55.50;;;;;;1904200;73;21169;-70
2022/01/11 10:41:31;;;;;;;16.32;9.45;;;29.90;55.50;;;;;;1941442;73;21151;-70
2022/01/11 10:44:02;;;;;;;16.35;9.33;;;29.90;55.60;;;;;;1921175;73;21236;-70
2022/01/11 10:46:35;;;;;;;21.07;9.93;;;29.80;55.60;;;;;;1858810;75;21638;-70
2022/01/11 10:49:09;;;;;;;11.38;8.80;;;29.80;55.90;;;;;;1871653;75;21158;-70
2022/01/11 10:51:40;;;;;;;15.15;8.85;;;29.80;55.90;;;;;;1847091;77;21181;-71
2022/01/11 10:54:12;;;;;;;16.50;8.80;;;29.70;56.00;;;;;;1835660;77;21158;-71
2022/01/11 10:56:43;;;;;;;16.93;9.85;;;29.70;56.10;;;;;;1875199;75;21212;-71
2022/01/11 10:59:13;;;;;;;13.10;8.80;;;29.60;56.20;;;;;;1877453;74;21563;-71
2022/01/11 11:01:45;;;;;;;13.48;8.78;;;29.60;56.20;;;;;;1853866;73;21295;-71
2022/01/11 11:04:19;;;;;;;15.40;9.18;;;29.60;56.40;;;;;;1852326;76;21197;-70
2022/01/11 11:06:50;;;;;;;15.50;9.63;;;29.50;56.50;;;;;;1857421;74;21166;-70
2022/01/11 11:12:26;;;;;;;20.43;10.45;;;29.50;56.80;;;;;;1871556;73;21877;-71
2022/01/11 11:14:59;;;;;;;14.73;9.80;;;29.40;56.80;;;;;;1956999;71;21663;-71
2022/01/11 11:17:32;;;;;;;19.37;13.32;;;29.40;56.90;;;;;;1961376;71;21611;-71
2022/01/11 11:20:05;;;;;;;17.95;12.82;;;29.40;57.10;;;;;;1882921;73;21742;-71
2022/01/11 11:22:36;;;;;;;31.68;18.77;;;29.30;57.20;;;;;;1901282;73;21233;-71
2022/01/11 11:25:08;;;;;;;24.87;15.55;;;29.30;57.40;;;;;;1905903;72;21182;-72
2022/01/11 11:27:39;;;;;;;25.37;14.93;;;29.30;57.30;;;;;;1948272;70;21145;-71
2022/01/11 11:30:11;;;;;;;19.87;12.73;;;29.20;57.50;;;;;;1915213;72;21632;-71
2022/01/11 11:32:44;;;;;;;19.92;11.90;;;29.20;57.60;;;;;;1916167;73;21240;-71
2022/01/11 11:35:17;;;;;;;16.45;12.07;;;29.20;57.70;;;;;;1950123;71;22068;-71
2022/01/11 11:37:50;;;;;;;16.97;12.10;;;29.20;57.80;;;;;;1955287;71;21126;-71
2022/01/11 11:40:24;;;;;;;17.80;11.48;;;29.20;58.70;;;;;;1951137;71;21575;-71
2022/01/11 11:42:59;;;;;;;20.12;12.63;;;29.10;58.00;;;;;;1931962;73;21190;-70
2022/01/11 11:45:32;;;;;;;25.68;12.88;;;29.10;58.20;;;;;;1934362;72;21159;-71
2022/01/11 11:48:05;;;;;;;22.20;12.98;;;29.00;58.40;;;;;;1908938;72;21681;-71
2022/01/11 11:50:39;;;;;;;25.55;12.37;;;29.00;58.50;;;;;;1935895;72;21172;-70
2022/01/11 11:53:12;;;;;;;23.67;14.00;;;29.00;58.60;;;;;;1910160;72;21133;-69
2022/01/11 11:55:43;;;;;;;22.07;13.68;;;29.00;58.80;;;;;;1889637;73;21162;-69
2022/01/11 11:58:16;;;;;;;23.40;14.20;;;29.00;58.80;;;;;;1913394;73;21155;-70
2022/01/11 12:00:47;;;;;;;28.27;17.05;;;28.90;59.00;;;;;;1928317;72;21627;-81
2022/01/11 12:03:20;;;;;;;27.62;18.02;;;28.90;59.20;;;;;;1933456;72;21197;-80
2022/01/11 12:05:53;;;;;;;27.87;17.92;;;28.90;59.30;;;;;;1933273;72;21120;-80
2022/01/11 12:08:27;;;;;;;27.22;19.55;;;28.90;59.40;;;;;;1909599;73;21065;-80
2022/01/11 12:11:02;;;;;;;32.25;20.60;;;28.80;59.50;;;;;;1937685;72;21167;-80
2022/01/11 12:13:35;;;;;;;28.85;19.90;;;28.80;59.60;;;;;;1906431;73;21100;-80
2022/01/11 12:16:07;;;;;;;39.88;21.02;;;28.80;59.70;;;;;;1955712;72;21126;-79
2022/01/11 12:18:40;;;;;;;32.85;20.40;;;28.80;60.00;;;;;;1933787;72;21314;-80
2022/01/11 12:21:11;;;;;;;38.23;21.17;;;28.80;60.10;;;;;;1932549;72;21590;-80
2022/01/11 12:23:47;;;;;;;32.73;20.77;;;28.80;60.30;;;;;;1951231;71;21085;-79
2022/01/11 12:26:20;;;;;;;30.12;20.52;;;28.70;60.30;;;;;;1940162;71;21700;-79
2022/01/11 12:28:53;;;;;;;32.10;21.37;;;28.70;60.40;;;;;;1924846;71;21125;-80
2022/01/11 12:31:27;;;;;;;31.07;19.77;;;28.70;60.70;;;;;;1925510;71;21145;-80
2022/01/11 12:33:58;;;;;;;33.25;19.65;;;28.70;60.90;;;;;;1906086;73;22514;-79
2022/01/11 12:36:31;;;;;;;30.55;19.55;;;28.60;60.90;;;;;;1888011;73;21088;-79
2022/01/11 12:39:05;;;;;;;29.23;19.67;;;28.60;61.10;;;;;;1919936;72;21673;-80
2022/01/11 12:41:37;;;;;;;33.28;19.52;;;28.60;61.30;;;;;;1901168;73;21198;-79
2022/01/11 12:44:12;;;;;;;27.30;18.80;;;28.50;61.30;;;;;;1916476;73;21185;-79
2022/01/11 12:46:45;;;;;;;26.37;18.95;;;28.50;62.50;;;;;;1914174;73;21141;-80
2022/01/11 12:49:16;;;;;;;40.20;20.25;;;28.50;62.00;;;;;;1931722;72;21220;-80
2022/01/11 12:51:54;;;;;;;28.70;18.98;;;28.40;61.80;;;;;;1921789;72;21201;-80
2022/01/11 12:54:21;;;;;;;37.88;20.10;;;28.40;62.00;;;;;;1903623;73;21080;-79
2022/01/11 12:56:54;;;;;;;32.58;21.35;;;28.40;62.20;;;;;;1925504;71;21689;-80
2022/01/11 12:59:28;;;;;;;29.50;21.52;;;28.40;62.30;;;;;;1914421;72;21654;-79
2022/01/11 13:02:07;;;;;;;32.28;21.30;;;28.30;62.20;;;;;;1930947;72;21154;-79